Time;durP1;ratioP1;P1;durP2;ratioP2;P2;SDS_P1;SDS_P2;PMS_P1;PMS_P2;Temp;Humidity;BMP_temperature;BMP_pressure;BME280_temperature;BME280_humidity;BME280_pressure;Samples;Min_cycle;Max_cycle;Signal;HPM_P1;HPM_P2
2022/01/25 00:32:21;;;;;;;9.50;4.45;;;4.00;66.60;;;;;;5132371;28;20054;-60
2022/01/25 00:34:49;;;;;;;5.90;3.85;;;4.00;66.50;;;;;;5114493;28;20076;-57
2022/01/25 00:37:18;;;;;;;7.78;4.55;;;3.90;66.00;;;;;;5114532;28;20065;-57
2022/01/25 00:39:46;;;;;;;6.22;4.15;;;3.80;65.70;;;;;;5089731;28;20134;-58
2022/01/25 00:42:13;;;;;;;5.55;3.80;;;3.90;66.00;;;;;;5126966;28;20497;-58
2022/01/25 00:44:46;;;;;;;3.70;2.67;;;3.90;66.00;;;;;;5105725;28;20040;-59
2022/01/25 00:47:15;;;;;;;7.00;4.53;;;3.90;66.20;;;;;;5092805;28;20134;-58
2022/01/25 00:49:44;;;;;;;6.40;2.97;;;3.90;66.30;;;;;;5128543;28;20043;-58
2022/01/25 00:54:59;;;;;;;4.57;2.83;;;3.90;66.40;;;;;;5097040;28;20047;-59
2022/01/25 00:57:26;;;;;;;7.63;4.10;;;3.90;65.90;;;;;;5097369;28;20062;-59
2022/01/25 00:59:54;;;;;;;6.78;3.03;;;3.90;66.00;;;;;;5119875;28;20072;-58
2022/01/25 01:02:22;;;;;;;4.18;2.80;;;3.90;66.00;;;;;;5114033;28;20421;-59
2022/01/25 01:04:50;;;;;;;4.95;3.17;;;3.90;66.10;;;;;;5107200;28;20039;-59
2022/01/25 01:07:18;;;;;;;4.68;3.28;;;3.90;66.10;;;;;;5096590;28;20043;-59
2022/01/25 01:09:46;;;;;;;5.07;2.88;;;3.90;65.80;;;;;;5130403;28;20439;-59
2022/01/25 01:12:35;;;;;;;5.10;3.05;;;3.80;65.40;;;;;;5115513;27;20050;-60
2022/01/25 01:15:49;;;;;;;4.68;2.80;;;3.80;65.60;;;;;;5132692;27;20043;-59
2022/01/25 01:40:00;;;;;;;4.10;2.38;;;3.90;66.20;;;;;;5114140;28;20035;-58
2022/01/25 01:45:41;;;;;;;5.38;2.70;;;3.90;67.00;;;;;;5106367;27;20043;-59
2022/01/25 01:48:16;;;;;;;4.07;2.90;;;3.80;67.30;;;;;;5084088;28;20086;-59
2022/01/25 01:50:43;;;;;;;6.15;3.28;;;3.80;67.80;;;;;;5103265;28;20052;-60
2022/01/25 01:53:11;;;;;;;4.05;2.15;;;3.70;68.10;;;;;;5098890;28;20401;-59
2022/01/25 01:55:41;;;;;;;5.00;2.97;;;3.80;68.00;;;;;;5097057;28;20551;-59
2022/01/25 01:58:08;;;;;;;4.30;2.80;;;3.70;67.90;;;;;;5095696;28;20131;-59
2022/01/25 02:00:41;;;;;;;4.05;2.75;;;3.80;67.90;;;;;;5096569;28;20067;-60
2022/01/25 02:03:09;;;;;;;4.57;2.78;;;3.80;67.80;;;;;;5095825;28;20077;-59
2022/01/25 02:05:37;;;;;;;5.45;2.80;;;3.70;67.70;;;;;;5114765;28;20050;-59
2022/01/25 02:08:05;;;;;;;4.45;2.95;;;3.70;67.70;;;;;;5080357;28;20119;-58
2022/01/25 02:10:34;;;;;;;4.65;2.65;;;3.70;67.70;;;;;;5097602;28;20477;-59
2022/01/25 02:13:10;;;;;;;9.07;3.45;;;3.70;67.00;;;;;;5097502;28;20042;-59
2022/01/25 02:15:40;;;;;;;5.80;2.95;;;3.80;66.60;;;;;;5097873;28;20075;-58
2022/01/25 02:23:41;;;;;;;5.97;2.90;;;3.60;66.90;;;;;;5115081;28;20039;-59
2022/01/25 02:26:11;;;;;;;5.03;2.40;;;3.70;67.70;;;;;;5080329;28;20043;-58
2022/01/25 02:28:41;;;;;;;6.00;3.00;;;3.70;67.90;;;;;;5097465;28;20036;-58
2022/01/25 02:31:11;;;;;;;6.30;3.38;;;3.70;68.50;;;;;;5097398;28;20520;-58
2022/01/25 02:33:39;;;;;;;5.65;2.90;;;3.70;69.20;;;;;;5114104;28;20051;-59
2022/01/25 02:36:16;;;;;;;4.07;2.85;;;3.70;69.70;;;;;;5115329;28;20039;-58
2022/01/25 02:38:43;;;;;;;4.85;2.88;;;3.70;70.00;;;;;;5115439;28;20489;-58
2022/01/25 02:41:11;;;;;;;3.63;2.45;;;3.70;70.20;;;;;;5115365;28;20498;-58
2022/01/25 02:43:38;;;;;;;3.67;2.58;;;3.70;70.40;;;;;;5114086;28;20081;-57
2022/01/25 02:49:10;;;;;;;5.70;3.15;;;3.70;70.50;;;;;;5116935;27;20124;-57
2022/01/25 02:51:41;;;;;;;5.50;2.72;;;3.70;70.60;;;;;;5093035;27;20532;-57
2022/01/25 02:54:10;;;;;;;6.22;3.63;;;3.60;70.70;;;;;;5117305;27;20043;-57
2022/01/25 02:56:40;;;;;;;7.95;3.10;;;3.60;71.20;;;;;;5117042;27;20043;-59
2022/01/25 02:59:07;;;;;;;6.68;3.03;;;3.60;71.40;;;;;;5117125;27;20047;-57
2022/01/25 03:01:36;;;;;;;6.10;4.53;;;3.60;71.70;;;;;;5135192;27;20462;-59
2022/01/25 03:04:05;;;;;;;5.72;3.20;;;3.60;72.00;;;;;;5135409;27;20051;-59
2022/01/25 03:06:34;;;;;;;4.20;2.53;;;3.60;72.20;;;;;;5116953;27;20058;-58
2022/01/25 03:09:04;;;;;;;6.50;3.35;;;3.60;72.40;;;;;;5117189;27;20085;-58
2022/01/25 03:11:53;;;;;;;5.03;3.45;;;3.60;72.60;;;;;;5135727;27;20114;-59
2022/01/25 03:14:58;;;;;;;5.68;2.78;;;3.50;72.60;;;;;;5135710;27;20066;-59
2022/01/25 03:17:29;;;;;;;4.32;2.75;;;3.50;72.70;;;;;;5116956;27;20050;-59
2022/01/25 03:20:06;;;;;;;4.95;2.97;;;3.50;72.90;;;;;;5135054;27;20125;-59
2022/01/25 03:22:57;;;;;;;4.70;2.45;;;3.60;73.00;;;;;;5135013;27;20054;-59
2022/01/25 03:25:26;;;;;;;5.45;3.20;;;3.50;73.50;;;;;;5099829;27;20050;-59
2022/01/25 03:27:53;;;;;;;5.30;2.63;;;3.50;72.70;;;;;;5116619;27;20039;-58
2022/01/25 03:30:21;;;;;;;8.73;3.88;;;3.50;72.50;;;;;;5116667;27;20077;-59
2022/01/25 03:32:48;;;;;;;4.15;2.88;;;3.50;72.70;;;;;;5134350;27;20054;-58
2022/01/25 03:35:16;;;;;;;5.57;2.95;;;3.50;72.60;;;;;;5133929;27;20041;-58
2022/01/25 03:37:44;;;;;;;6.07;3.53;;;3.50;72.60;;;;;;5116488;27;20047;-58
2022/01/25 03:40:12;;;;;;;8.77;3.20;;;3.40;72.70;;;;;;5134722;27;20078;-58
2022/01/25 03:42:39;;;;;;;5.82;3.25;;;3.40;72.80;;;;;;5134708;27;20046;-58
2022/01/25 03:45:09;;;;;;;7.07;3.05;;;3.40;73.00;;;;;;5135078;27;20390;-58
2022/01/25 03:47:59;;;;;;;4.50;3.53;;;3.40;73.00;;;;;;5119869;27;20142;-58
2022/01/25 03:50:27;;;;;;;5.35;2.95;;;3.40;72.90;;;;;;5114100;28;20074;-58
2022/01/25 03:52:55;;;;;;;3.90;2.95;;;3.40;72.50;;;;;;5114016;28;20063;-58
2022/01/25 03:55:22;;;;;;;5.68;2.88;;;3.40;72.30;;;;;;5095692;28;20047;-58
2022/01/25 03:57:50;;;;;;;5.90;2.95;;;3.40;72.10;;;;;;5113789;28;20035;-59
2022/01/25 04:00:17;;;;;;;4.43;2.72;;;3.40;72.20;;;;;;5113618;28;20130;-59
2022/01/25 04:02:52;;;;;;;4.70;2.83;;;3.40;72.40;;;;;;5114248;28;20042;-59
2022/01/25 04:05:24;;;;;;;5.03;2.92;;;3.40;72.50;;;;;;5114047;28;20075;-58
2022/01/25 04:07:52;;;;;;;4.13;2.90;;;3.40;72.20;;;;;;5095938;28;20040;-59
2022/01/25 04:10:21;;;;;;;5.07;3.08;;;3.40;72.00;;;;;;5096219;28;20477;-59
2022/01/25 04:12:48;;;;;;;8.43;3.05;;;3.40;71.90;;;;;;5095962;28;20101;-59
2022/01/25 04:15:16;;;;;;;5.97;2.70;;;3.50;72.20;;;;;;5114091;28;20094;-59
2022/01/25 04:17:49;;;;;;;5.40;3.55;;;3.50;72.60;;;;;;5113704;28;20059;-59
2022/01/25 04:20:23;;;;;;;13.05;3.10;;;3.50;73.10;;;;;;5095964;28;20040;-59
2022/01/25 04:25:37;;;;;;;4.43;3.20;;;3.50;73.80;;;;;;5096112;28;20055;-58
2022/01/25 04:28:05;;;;;;;5.30;3.40;;;3.40;74.30;;;;;;5095771;28;20047;-59
2022/01/25 04:30:32;;;;;;;5.10;3.30;;;3.40;74.40;;;;;;5113986;28;20078;-58
2022/01/25 04:35:45;;;;;;;6.82;3.17;;;3.50;75.10;;;;;;5113595;28;20078;-58
2022/01/25 04:49:26;;;;;;;5.65;3.30;;;3.40;76.90;;;;;;5099615;28;20063;-57
2022/01/25 04:52:04;;;;;;;5.32;3.10;;;3.40;77.00;;;;;;5117356;28;20042;-57
2022/01/25 04:57:32;;;;;;;6.43;4.28;;;3.30;76.90;;;;;;5098754;28;20047;-57
2022/01/25 05:00:04;;;;;;;;;;;3.30;76.60;;;;;;5099706;28;20131;-57
2022/01/25 05:05:51;;;;;;;9.27;5.22;;;3.30;76.10;;;;;;5116965;28;20036;-58
2022/01/25 05:08:22;;;;;;;5.85;3.65;;;3.40;76.20;;;;;;5097603;28;20729;-57
2022/01/25 05:11:13;;;;;;;7.25;3.13;;;3.40;75.60;;;;;;5117079;28;20469;-57
2022/01/25 05:13:52;;;;;;;5.07;3.40;;;3.40;75.70;;;;;;5117229;28;20402;-57
2022/01/25 05:16:32;;;;;;;7.47;2.83;;;3.40;75.70;;;;;;5117035;28;20097;-57
2022/01/25 05:22:18;;;;;;;8.15;3.58;;;3.40;75.30;;;;;;5117165;28;20507;-57
2022/01/25 05:24:48;;;;;;;6.13;3.22;;;3.40;75.20;;;;;;5097159;28;20044;-58
2022/01/25 05:27:20;;;;;;;3.92;2.72;;;3.40;75.00;;;;;;5091568;28;20039;-58
2022/01/25 05:29:47;;;;;;;5.18;3.53;;;3.40;74.70;;;;;;5085092;28;20064;-57
2022/01/25 05:32:16;;;;;;;4.57;2.97;;;3.40;74.50;;;;;;5113750;28;20090;-58
2022/01/25 05:34:43;;;;;;;5.95;3.75;;;3.40;74.40;;;;;;5084922;28;20039;-58
2022/01/25 05:37:11;;;;;;;6.40;3.35;;;3.40;74.70;;;;;;5098084;28;20566;-59
2022/01/25 05:39:39;;;;;;;4.05;2.40;;;3.40;74.80;;;;;;5106798;28;20036;-59
2022/01/25 05:42:29;;;;;;;4.75;2.78;;;3.40;75.00;;;;;;5102654;28;20130;-58
2022/01/25 05:45:12;;;;;;;6.85;3.20;;;3.40;75.20;;;;;;5102032;28;20068;-58
2022/01/25 05:47:42;;;;;;;4.50;2.45;;;3.40;75.50;;;;;;5095842;28;20048;-58
2022/01/25 05:50:12;;;;;;;6.05;4.03;;;3.40;76.10;;;;;;5116070;28;20474;-58
2022/01/25 05:52:41;;;;;;;4.95;3.50;;;3.40;76.40;;;;;;5098138;28;20063;-58
2022/01/25 05:55:09;;;;;;;6.30;3.35;;;3.50;76.80;;;;;;5116249;28;20122;-58
2022/01/25 05:57:37;;;;;;;11.57;4.07;;;3.50;77.00;;;;;;5115414;28;20050;-58
2022/01/25 06:00:06;;;;;;;5.07;2.85;;;3.50;77.30;;;;;;5116082;28;20040;-56
2022/01/25 06:02:35;;;;;;;6.82;4.10;;;3.50;77.50;;;;;;5098057;28;20556;-57
2022/01/25 06:05:05;;;;;;;4.72;3.03;;;3.50;77.60;;;;;;5097574;28;20102;-57
2022/01/25 06:07:32;;;;;;;6.47;4.35;;;3.50;77.80;;;;;;5116129;28;20040;-58
2022/01/25 06:10:00;;;;;;;4.88;3.25;;;3.50;77.90;;;;;;5097797;28;20097;-57
2022/01/25 06:12:28;;;;;;;8.50;4.03;;;3.50;78.00;;;;;;5097644;28;20067;-57
2022/01/25 06:14:55;;;;;;;8.40;3.70;;;3.60;78.10;;;;;;5115809;28;20131;-58
2022/01/25 06:17:23;;;;;;;6.18;4.25;;;3.60;78.20;;;;;;5115788;28;20035;-58
2022/01/25 06:19:50;;;;;;;6.57;3.22;;;3.60;78.30;;;;;;5080839;28;20052;-57
2022/01/25 06:22:18;;;;;;;6.03;3.50;;;3.80;78.50;;;;;;5115211;28;20062;-57
2022/01/25 06:24:45;;;;;;;5.03;3.00;;;4.00;77.80;;;;;;5097313;28;20043;-57
2022/01/25 06:27:13;;;;;;;8.48;4.50;;;4.40;77.40;;;;;;5115319;28;20048;-57
2022/01/25 06:29:41;;;;;;;6.57;4.35;;;4.90;76.30;;;;;;5115269;28;20127;-58
2022/01/25 06:32:08;;;;;;;6.72;3.30;;;5.40;74.90;;;;;;5097404;28;20043;-57
2022/01/25 06:34:36;;;;;;;6.50;3.40;;;6.00;73.70;;;;;;5115258;28;20047;-58
2022/01/25 06:37:04;;;;;;;5.13;3.28;;;6.50;72.30;;;;;;5097284;28;20039;-59
2022/01/25 06:39:32;;;;;;;5.97;3.85;;;6.90;70.90;;;;;;5115423;28;20512;-59
2022/01/25 06:41:59;;;;;;;5.13;3.05;;;7.40;69.50;;;;;;5114984;28;20051;-59
2022/01/25 06:44:27;;;;;;;7.20;3.75;;;7.90;68.50;;;;;;5115089;28;20043;-59
2022/01/25 06:46:54;;;;;;;7.75;4.18;;;8.40;67.30;;;;;;5097114;28;20083;-58
2022/01/25 06:49:22;;;;;;;5.18;3.30;;;8.90;66.60;;;;;;5114912;28;20044;-58
2022/01/25 06:51:49;;;;;;;7.07;3.95;;;9.20;65.70;;;;;;5096935;28;20036;-59
2022/01/25 06:54:17;;;;;;;6.05;3.55;;;9.50;65.30;;;;;;5114960;28;20042;-59
2022/01/25 06:56:45;;;;;;;7.53;3.85;;;10.00;64.90;;;;;;5114859;28;20138;-59
2022/01/25 06:59:12;;;;;;;8.45;4.50;;;10.60;64.00;;;;;;5097055;28;20046;-58
2022/01/25 07:01:40;;;;;;;10.98;5.82;;;11.20;63.00;;;;;;5115001;28;20039;-59
2022/01/25 07:04:08;;;;;;;7.13;5.03;;;11.80;62.10;;;;;;5096841;28;20043;-58
2022/01/25 07:06:35;;;;;;;5.93;4.20;;;12.40;61.20;;;;;;5114708;28;20134;-59
2022/01/25 07:09:03;;;;;;;7.18;3.85;;;12.90;60.30;;;;;;5113711;28;20446;-59
2022/01/25 07:11:31;;;;;;;6.40;4.43;;;13.30;59.80;;;;;;5096615;28;20067;-59
2022/01/25 07:13:58;;;;;;;8.43;4.65;;;13.60;59.30;;;;;;5114646;28;20048;-59
2022/01/25 07:16:26;;;;;;;7.90;4.07;;;14.00;58.80;;;;;;5096484;28;20045;-58
2022/01/25 07:18:53;;;;;;;6.57;3.92;;;14.40;58.40;;;;;;5096502;28;20047;-58
2022/01/25 07:21:21;;;;;;;6.13;3.65;;;14.80;58.30;;;;;;5114280;28;20425;-59
2022/01/25 07:23:48;;;;;;;8.23;3.95;;;15.20;57.50;;;;;;5096471;28;20435;-59
2022/01/25 07:26:16;;;;;;;6.97;3.88;;;15.50;57.00;;;;;;5114599;28;20105;-59
2022/01/25 07:28:44;;;;;;;6.47;3.22;;;15.30;56.40;;;;;;5096235;28;20036;-58
2022/01/25 07:31:11;;;;;;;5.95;4.40;;;15.20;56.30;;;;;;5114207;28;20040;-59
2022/01/25 07:33:44;;;;;;;5.38;3.55;;;15.00;56.20;;;;;;5095817;28;20441;-58
2022/01/25 07:36:13;;;;;;;5.70;2.75;;;14.60;55.90;;;;;;5114038;28;20047;-58
2022/01/25 07:38:40;;;;;;;4.53;3.08;;;14.30;55.80;;;;;;5096236;28;20043;-58
2022/01/25 07:41:14;;;;;;;5.03;3.30;;;14.10;56.20;;;;;;5114362;28;20146;-58
2022/01/25 07:43:42;;;;;;;6.35;3.88;;;13.80;56.60;;;;;;5045596;28;20044;-58
2022/01/25 07:46:11;;;;;;;6.22;3.63;;;13.40;56.90;;;;;;5096544;28;20039;-58
2022/01/25 07:48:40;;;;;;;6.78;3.83;;;13.00;57.50;;;;;;5114231;28;20040;-58
2022/01/25 07:51:09;;;;;;;6.82;4.53;;;12.70;58.40;;;;;;5079994;28;20409;-58
2022/01/25 07:53:38;;;;;;;13.57;7.22;;;12.40;59.10;;;;;;5114021;28;20039;-59
2022/01/25 07:56:05;;;;;;;11.18;6.95;;;12.40;59.50;;;;;;5114203;28;20043;-59
2022/01/25 07:58:33;;;;;;;7.70;5.63;;;12.30;59.50;;;;;;5095782;28;20048;-59
2022/01/25 08:01:01;;;;;;;11.38;5.53;;;12.20;59.40;;;;;;5114082;28;20485;-59
2022/01/25 08:03:28;;;;;;;6.05;4.38;;;12.10;59.70;;;;;;5095805;28;20046;-59
2022/01/25 08:06:01;;;;;;;10.98;4.25;;;11.90;59.70;;;;;;5113547;28;20044;-59
2022/01/25 08:08:43;;;;;;;6.78;3.47;;;11.90;59.90;;;;;;5075848;28;20093;-59
2022/01/25 08:11:27;;;;;;;7.53;4.38;;;12.00;60.20;;;;;;5095903;28;20047;-58
2022/01/25 08:14:11;;;;;;;7.82;3.95;;;12.10;60.60;;;;;;5096707;28;20079;-59
2022/01/25 08:16:48;;;;;;;7.53;3.90;;;12.00;60.70;;;;;;5078244;28;20497;-58
2022/01/25 08:19:30;;;;;;;5.95;3.53;;;11.90;60.70;;;;;;5085452;28;20486;-58
2022/01/25 08:22:02;;;;;;;5.72;3.33;;;11.60;61.00;;;;;;5098911;28;20031;-58
2022/01/25 08:24:38;;;;;;;5.60;3.92;;;11.40;61.80;;;;;;5116083;28;20050;-58
2022/01/25 08:27:06;;;;;;;6.28;4.38;;;11.10;62.60;;;;;;5082146;28;20493;-58
2022/01/25 08:29:52;;;;;;;7.18;3.78;;;10.90;63.20;;;;;;5117668;28;20097;-58
2022/01/25 08:32:22;;;;;;;6.93;3.72;;;10.80;63.90;;;;;;5083382;28;20067;-58
2022/01/25 08:34:54;;;;;;;6.68;4.03;;;10.60;64.00;;;;;;5083539;28;20085;-59
2022/01/25 08:37:42;;;;;;;8.60;3.97;;;10.40;64.50;;;;;;5117619;28;20452;-58
2022/01/25 08:40:10;;;;;;;9.93;4.47;;;10.20;65.00;;;;;;5117644;28;20121;-58
2022/01/25 08:42:43;;;;;;;6.07;3.35;;;10.10;65.50;;;;;;5117139;28;20043;-58
2022/01/25 08:45:24;;;;;;;6.40;3.78;;;10.00;65.60;;;;;;5113222;28;20079;-59
2022/01/25 08:47:59;;;;;;;5.63;3.92;;;9.90;65.70;;;;;;5117809;28;20052;-58
2022/01/25 08:50:44;;;;;;;4.93;3.00;;;9.70;65.50;;;;;;5117478;28;20058;-58
2022/01/25 08:53:35;;;;;;;6.35;3.42;;;9.50;65.50;;;;;;5054704;28;20056;-58
2022/01/25 08:56:19;;;;;;;7.68;4.32;;;9.40;66.00;;;;;;5053523;28;20136;-59
2022/01/25 08:59:19;;;;;;;7.60;3.30;;;9.50;67.00;;;;;;4959679;28;20572;-58
2022/01/25 09:01:46;;;;;;;5.32;3.35;;;9.40;67.20;;;;;;4975631;28;20409;-58
2022/01/25 09:04:14;;;;;;;7.82;4.47;;;9.60;68.10;;;;;;4975641;28;20042;-58
2022/01/25 09:06:42;;;;;;;7.45;4.47;;;9.80;67.80;;;;;;4975668;28;20098;-58
2022/01/25 09:09:10;;;;;;;6.57;4.20;;;9.90;67.40;;;;;;4975740;28;20433;-59
2022/01/25 09:11:40;;;;;;;6.60;4.03;;;9.90;67.40;;;;;;4975474;28;20050;-58
2022/01/25 09:14:08;;;;;;;8.10;3.08;;;10.20;68.70;;;;;;4975738;28;20145;-59
2022/01/25 09:16:37;;;;;;;4.63;2.90;;;10.40;66.60;;;;;;4975509;28;20058;-59
2022/01/25 09:19:05;;;;;;;6.65;3.58;;;10.50;64.80;;;;;;4975332;28;20513;-59
2022/01/25 09:21:34;;;;;;;7.13;4.28;;;10.40;65.20;;;;;;4958883;28;20043;-59
2022/01/25 09:24:02;;;;;;;5.13;3.08;;;10.30;66.00;;;;;;4991980;28;20053;-59
2022/01/25 09:26:30;;;;;;;6.90;3.97;;;10.10;65.60;;;;;;5024843;28;20540;-59
2022/01/25 09:28:58;;;;;;;5.60;3.13;;;9.90;66.00;;;;;;5023804;28;20052;-58
2022/01/25 09:31:27;;;;;;;6.60;4.43;;;9.70;66.10;;;;;;5107285;28;20082;-58
2022/01/25 09:33:55;;;;;;;7.20;4.40;;;9.60;66.00;;;;;;5111952;28;20039;-59
2022/01/25 09:36:24;;;;;;;5.22;2.88;;;9.50;66.60;;;;;;5094108;28;20485;-59
2022/01/25 09:38:55;;;;;;;6.85;3.53;;;9.60;67.00;;;;;;5104885;28;20505;-59
2022/01/25 09:41:23;;;;;;;5.13;3.03;;;9.80;66.80;;;;;;5102530;28;20046;-59
2022/01/25 09:43:51;;;;;;;6.70;3.78;;;9.80;66.50;;;;;;5093215;28;20047;-59
2022/01/25 09:46:19;;;;;;;6.47;3.67;;;9.80;67.80;;;;;;5107592;28;20130;-58
2022/01/25 09:48:48;;;;;;;5.95;3.78;;;9.80;65.50;;;;;;5105200;28;20510;-59
2022/01/25 09:51:19;;;;;;;8.57;3.80;;;9.90;66.30;;;;;;5114891;28;20126;-58
2022/01/25 09:53:47;;;;;;;6.53;3.85;;;10.10;66.90;;;;;;5109197;28;20130;-60
2022/01/25 09:56:14;;;;;;;5.40;3.92;;;10.30;68.90;;;;;;5102592;28;20090;-60
2022/01/25 09:58:44;;;;;;;19.02;5.50;;;10.60;68.40;;;;;;5109662;28;20044;-62
2022/01/25 10:01:12;;;;;;;7.57;4.10;;;10.80;70.30;;;;;;5114798;28;20048;-61
2022/01/25 10:03:42;;;;;;;6.82;3.67;;;10.80;64.80;;;;;;5075707;28;20050;-61
2022/01/25 10:06:16;;;;;;;5.68;3.95;;;10.80;65.30;;;;;;5107272;28;20043;-61
2022/01/25 10:08:45;;;;;;;6.57;3.13;;;10.70;64.40;;;;;;5102694;28;20050;-61
2022/01/25 10:11:14;;;;;;;4.72;2.88;;;10.60;64.30;;;;;;5114516;28;20040;-61
2022/01/25 10:13:45;;;;;;;4.82;3.10;;;10.30;64.70;;;;;;5106494;28;20040;-61
2022/01/25 10:16:30;;;;;;;6.72;2.97;;;9.90;66.50;;;;;;5114779;28;20051;-61
2022/01/25 10:19:12;;;;;;;6.68;3.47;;;9.90;67.50;;;;;;5110744;28;20147;-61
2022/01/25 10:21:42;;;;;;;5.47;3.10;;;9.90;68.40;;;;;;5114019;28;20087;-61
2022/01/25 10:24:14;;;;;;;8.88;3.20;;;10.00;67.30;;;;;;5088358;28;20040;-62
2022/01/25 10:27:03;;;;;;;8.18;4.07;;;10.10;68.40;;;;;;5108737;28;20050;-61
2022/01/25 10:29:35;;;;;;;8.55;4.20;;;10.20;67.30;;;;;;5107937;28;20035;-61
2022/01/25 10:32:06;;;;;;;6.85;3.95;;;10.10;68.00;;;;;;5098023;28;20478;-61
2022/01/25 10:34:41;;;;;;;5.63;3.15;;;10.10;67.40;;;;;;5110249;28;20135;-61
2022/01/25 10:37:11;;;;;;;7.03;3.15;;;10.10;67.00;;;;;;5109843;28;20036;-61
2022/01/25 10:39:45;;;;;;;5.68;3.55;;;10.10;66.50;;;;;;5114128;28;20135;-61
2022/01/25 10:42:22;;;;;;;6.07;3.65;;;10.00;66.70;;;;;;5093506;28;20035;-61
2022/01/25 10:44:55;;;;;;;;;;;10.00;65.40;;;;;;5114578;28;20516;-61
2022/01/25 10:47:42;;;;;;;5.70;3.40;;;10.00;64.80;;;;;;5094667;28;20023;-61
2022/01/25 10:50:20;;;;;;;6.13;3.60;;;9.90;65.30;;;;;;5108897;28;20549;-61
2022/01/25 10:53:10;;;;;;;8.75;3.47;;;9.90;65.60;;;;;;5100896;28;20106;-61
2022/01/25 10:55:38;;;;;;;8.35;4.03;;;9.80;66.40;;;;;;5084439;28;20055;-61
2022/01/25 10:58:07;;;;;;;7.57;3.03;;;9.60;66.90;;;;;;5110721;28;20044;-61
2022/01/25 11:00:38;;;;;;;7.10;3.97;;;9.60;66.70;;;;;;5101110;28;20044;-62
2022/01/25 11:03:06;;;;;;;9.55;4.90;;;9.50;66.20;;;;;;5101011;28;20044;-61
2022/01/25 11:05:39;;;;;;;7.57;3.13;;;9.70;65.60;;;;;;5100919;28;20063;-61
2022/01/25 11:08:18;;;;;;;5.80;3.33;;;9.60;66.30;;;;;;5090406;28;20391;-62
2022/01/25 11:10:58;;;;;;;5.72;3.03;;;9.60;65.20;;;;;;5103636;28;20126;-61
2022/01/25 11:15:58;;;;;;;5.65;3.15;;;9.60;66.10;;;;;;5100903;28;20040;-62
2022/01/25 11:18:25;;;;;;;6.97;3.10;;;9.70;66.00;;;;;;5101343;28;20035;-62
2022/01/25 11:20:54;;;;;;;5.88;3.28;;;9.80;66.60;;;;;;5082127;28;20506;-61
2022/01/25 11:23:23;;;;;;;4.68;2.97;;;9.80;66.80;;;;;;5068784;28;20044;-62
2022/01/25 11:25:53;;;;;;;5.15;2.92;;;9.90;66.80;;;;;;5105388;28;20090;-61
2022/01/25 11:28:21;;;;;;;6.90;3.03;;;10.00;69.30;;;;;;5071334;28;20043;-62
2022/01/25 11:30:51;;;;;;;5.35;2.58;;;10.10;69.80;;;;;;5101427;28;20043;-62
2022/01/25 11:33:20;;;;;;;7.85;3.55;;;10.00;68.20;;;;;;5098004;28;20039;-61
2022/01/25 11:35:49;;;;;;;5.20;2.92;;;9.70;68.80;;;;;;5084888;28;20036;-62
2022/01/25 11:38:34;;;;;;;8.65;4.32;;;9.80;69.80;;;;;;5107444;28;20028;-61
2022/01/25 11:41:26;;;;;;;6.63;3.72;;;9.80;70.30;;;;;;5099525;28;20042;-62
2022/01/25 11:44:10;;;;;;;5.78;3.40;;;9.80;72.40;;;;;;5091905;28;20502;-62
2022/01/25 11:46:41;;;;;;;11.30;3.47;;;9.70;71.10;;;;;;5089975;28;20058;-62
2022/01/25 11:49:20;;;;;;;10.93;4.43;;;9.80;71.10;;;;;;5131059;27;20035;-61
2022/01/25 11:52:11;;;;;;;5.65;3.05;;;9.80;71.90;;;;;;5131438;27;20039;-62
2022/01/25 11:54:41;;;;;;;8.40;4.97;;;9.80;71.90;;;;;;5127406;27;20042;-63
2022/01/25 11:57:16;;;;;;;7.60;4.32;;;9.80;72.00;;;;;;5096292;27;20488;-62
2022/01/25 11:59:56;;;;;;;5.95;3.05;;;9.80;72.60;;;;;;5133683;27;20472;-62
2022/01/25 12:02:40;;;;;;;8.23;3.33;;;9.80;72.30;;;;;;5127602;28;20036;-63
2022/01/25 12:05:10;;;;;;;5.43;3.25;;;10.00;73.60;;;;;;5132964;28;20083;-62
2022/01/25 12:07:41;;;;;;;7.57;4.97;;;10.20;72.50;;;;;;5128452;28;20548;-61
2022/01/25 12:10:38;;;;;;;6.75;4.25;;;10.20;72.50;;;;;;5132792;28;20043;-62
2022/01/25 12:13:25;;;;;;;7.47;4.43;;;10.20;71.70;;;;;;5119510;28;20040;-62
2022/01/25 12:16:11;;;;;;;;;;;10.20;72.10;;;;;;5123811;28;20035;-62
2022/01/25 12:18:57;;;;;;;5.90;3.80;;;10.00;72.60;;;;;;5112179;28;20294;-62
2022/01/25 12:21:58;;;;;;;6.47;4.82;;;10.00;73.30;;;;;;5133042;28;20393;-62
2022/01/25 12:24:35;;;;;;;6.05;3.80;;;10.10;73.40;;;;;;5089371;28;20054;-62
2022/01/25 12:27:18;;;;;;;4.63;3.35;;;10.00;73.20;;;;;;5131148;28;20051;-61
2022/01/25 12:30:11;;;;;;;6.60;3.28;;;9.70;72.90;;;;;;5097908;28;20039;-61
2022/01/25 12:32:51;;;;;;;6.47;3.25;;;9.70;73.10;;;;;;5131064;28;20126;-61
2022/01/25 12:35:30;;;;;;;5.65;3.65;;;9.70;73.30;;;;;;5132889;28;20063;-61
2022/01/25 12:38:01;;;;;;;5.07;3.40;;;9.70;72.70;;;;;;5111821;28;20119;-60
2022/01/25 12:40:32;;;;;;;3.88;2.78;;;9.70;73.10;;;;;;5132551;28;20043;-61
2022/01/25 12:43:09;;;;;;;6.80;3.78;;;9.60;73.10;;;;;;5123268;28;20047;-61
2022/01/25 12:45:45;;;;;;;6.90;3.25;;;9.40;72.60;;;;;;5114341;28;20039;-61
2022/01/25 12:48:15;;;;;;;4.93;2.63;;;9.50;72.60;;;;;;5128448;28;20073;-61
2022/01/25 12:50:49;;;;;;;5.10;3.70;;;9.50;72.40;;;;;;5132500;28;20050;-61
2022/01/25 12:53:22;;;;;;;8.10;3.88;;;9.60;72.30;;;;;;5121417;28;20075;-61
2022/01/25 12:55:52;;;;;;;7.13;4.18;;;9.70;72.60;;;;;;5132362;28;20493;-61
2022/01/25 12:58:25;;;;;;;4.65;2.58;;;9.60;73.40;;;;;;5120634;28;20401;-62
2022/01/25 13:00:56;;;;;;;4.28;2.83;;;9.60;73.20;;;;;;5132492;28;20053;-61
2022/01/25 13:03:32;;;;;;;4.90;3.15;;;9.50;72.30;;;;;;5122290;28;20027;-61
2022/01/25 13:06:10;;;;;;;5.13;2.40;;;9.50;71.70;;;;;;5120139;28;20039;-61
2022/01/25 13:08:44;;;;;;;7.07;3.08;;;9.40;72.10;;;;;;5135595;27;20049;-61
2022/01/25 13:11:19;;;;;;;6.22;4.15;;;9.50;72.20;;;;;;5135349;27;20333;-61
2022/01/25 13:16:58;;;;;;;9.45;4.50;;;9.40;71.20;;;;;;5123150;27;20124;-62
2022/01/25 13:19:32;;;;;;;7.80;4.03;;;9.40;70.90;;;;;;5123036;27;20085;-61
2022/01/25 13:22:12;;;;;;;5.80;2.80;;;9.40;71.20;;;;;;5132575;27;20053;-63
2022/01/25 13:24:57;;;;;;;6.95;2.70;;;9.50;71.50;;;;;;5124255;27;20039;-60
2022/01/25 13:27:30;;;;;;;5.97;3.55;;;9.50;72.20;;;;;;5134202;27;20531;-61
2022/01/25 13:32:50;;;;;;;6.10;3.85;;;9.50;69.00;;;;;;5126445;27;20042;-61
2022/01/25 13:35:28;;;;;;;5.07;3.33;;;9.40;69.10;;;;;;5135941;27;20435;-61
2022/01/25 13:38:04;;;;;;;6.22;3.33;;;9.30;68.80;;;;;;5120613;27;20375;-61
2022/01/25 13:41:04;;;;;;;8.00;4.05;;;9.30;69.20;;;;;;5135621;27;20133;-61
2022/01/25 13:46:25;;;;;;;4.18;2.92;;;9.00;68.00;;;;;;5126244;27;20477;-61
2022/01/25 13:48:58;;;;;;;4.80;2.90;;;9.00;66.80;;;;;;5109336;27;20040;-60
2022/01/25 13:51:28;;;;;;;4.53;2.78;;;8.90;67.50;;;;;;5120718;27;20035;-61
2022/01/25 13:54:01;;;;;;;4.70;2.42;;;9.00;67.80;;;;;;5104208;28;20035;-61
2022/01/25 13:56:33;;;;;;;5.82;3.88;;;9.00;65.90;;;;;;5081062;28;20046;-61
2022/01/25 13:59:03;;;;;;;4.05;2.78;;;9.00;66.40;;;;;;5105172;28;20036;-61
2022/01/25 14:01:32;;;;;;;6.15;3.47;;;9.00;67.80;;;;;;5101724;28;20059;-61
2022/01/25 14:04:07;;;;;;;7.13;3.60;;;9.00;68.10;;;;;;5106902;28;20489;-61
2022/01/25 14:06:41;;;;;;;4.15;2.92;;;8.90;68.40;;;;;;5106079;28;20186;-61
2022/01/25 14:09:23;;;;;;;3.50;2.65;;;8.80;67.80;;;;;;5106402;28;20099;-60
2022/01/25 14:25:39;;;;;;;5.95;2.50;;;8.70;67.80;;;;;;5101082;28;20063;-61
2022/01/25 14:28:13;;;;;;;4.88;2.67;;;8.70;68.10;;;;;;5095031;28;20393;-60
2022/01/25 14:30:44;;;;;;;6.10;2.88;;;8.60;68.40;;;;;;5123616;27;20058;-60
2022/01/25 14:33:14;;;;;;;4.28;2.13;;;8.50;67.30;;;;;;5091962;28;20036;-61
2022/01/25 14:35:46;;;;;;;5.38;3.13;;;8.30;67.90;;;;;;5102522;28;20126;-60
2022/01/25 14:38:31;;;;;;;6.25;3.08;;;8.30;68.10;;;;;;5100936;28;20501;-60
2022/01/25 14:41:17;;;;;;;4.75;3.17;;;8.30;68.50;;;;;;5122137;27;20142;-60
2022/01/25 14:43:52;;;;;;;4.45;2.63;;;8.40;68.80;;;;;;5103407;28;20039;-61
2022/01/25 14:46:31;;;;;;;6.63;3.70;;;8.40;69.70;;;;;;5107679;27;20054;-61
2022/01/25 14:49:05;;;;;;;4.95;3.13;;;8.40;70.30;;;;;;5106020;27;20063;-60
2022/01/25 14:51:37;;;;;;;2.97;2.35;;;8.40;70.60;;;;;;5108567;27;20032;-60
2022/01/25 14:54:07;;;;;;;4.88;2.60;;;8.40;70.00;;;;;;5105881;28;20493;-61
2022/01/25 14:56:47;;;;;;;6.68;3.08;;;8.40;70.40;;;;;;5120087;27;20038;-61
2022/01/25 14:59:27;;;;;;;5.57;3.80;;;8.40;70.90;;;;;;5105291;28;20036;-60
2022/01/25 15:02:02;;;;;;;6.82;4.00;;;8.30;71.10;;;;;;5096027;28;20036;-61
2022/01/25 15:04:38;;;;;;;6.38;3.70;;;8.30;71.70;;;;;;5087423;28;20035;-61
2022/01/25 15:07:08;;;;;;;7.35;3.03;;;8.20;71.80;;;;;;5100717;28;20036;-61
2022/01/25 15:09:37;;;;;;;5.00;2.85;;;8.20;72.60;;;;;;5086860;28;20064;-61
2022/01/25 15:12:05;;;;;;;4.63;2.80;;;8.20;73.20;;;;;;5107626;28;20067;-61
2022/01/25 15:14:39;;;;;;;4.90;2.67;;;8.20;74.00;;;;;;5086619;28;20036;-61
2022/01/25 15:17:07;;;;;;;4.75;2.28;;;8.20;74.90;;;;;;5087778;28;20040;-61
2022/01/25 15:19:35;;;;;;;5.03;2.85;;;8.10;75.40;;;;;;5105380;28;20067;-61
2022/01/25 15:22:03;;;;;;;14.10;4.70;;;8.10;75.60;;;;;;5084341;28;20569;-61